Terminal Aerodrome Forecast
Issued by NWS

Home | Current Version | Previous Version | Graphics & Text | Print | Product List | Glossary On
Versions: 1 2 3 4 5 6 7 8 9 10 11 12 13 14 15 16 17 18 19 20 21
000
FTUS43 KTOP 241700
TAFFOE
TAF
KFOE 241734Z 2418/2518 19012KT P6SM VCSH SCT023 BKN040
      TEMPO 2422/2502 4SM -TSRA OVC013CB
     FM250200 19007KT P6SM BKN050
     FM251300 19007KT P6SM VCSH SCT010 BKN050=

USA.gov is the U.S. government's official web portal to all federal, state and local government web resources and services.